Terminal Aerodrome Forecast
Issued by NWS

Home | Current Version | Previous Version | Text Only | Print | Product List | Glossary On
Versions: 1 2 3 4 5 6 7 8 9 10 11 12 13 14 15 16 17
000
FTUS44 KLZK 040800 AAA
TAFLLQ
TAF AMD
KLLQ 040849Z 0409/0506 26009G15KT P6SM -RA VCTS BKN035CB OVC050
      TEMPO 0409/0413 VRB15G25KT 4SM TSRA BR BKN025CB OVC050
     FM041600 22007KT P6SM VCSH BKN035 OVC100
     FM041900 22007KT P6SM VCTS SCT035CB BKN050 OVC100=

USA.gov is the U.S. government's official web portal to all federal, state and local government web resources and services.